sensor_id;sensor_type;location;lat;lon;timestamp;pressure;altitude;pressure_sealevel;temperature;humidity
41306;BME280;27051;50.376;19.152;2023-05-16T00:01:31;97581.06;;;13.35;61.83
41306;BME280;27051;50.376;19.152;2023-05-16T00:03:58;97584.77;;;13.35;61.74
41306;BME280;27051;50.376;19.152;2023-05-16T00:06:24;97591.48;;;13.35;61.70
41306;BME280;27051;50.376;19.152;2023-05-16T00:08:51;97594.45;;;13.31;61.75
41306;BME280;27051;50.376;19.152;2023-05-16T00:11:18;97592.10;;;13.28;61.80
41306;BME280;27051;50.376;19.152;2023-05-16T00:13:44;97595.44;;;13.26;61.86
41306;BME280;27051;50.376;19.152;2023-05-16T00:16:11;97591.79;;;13.24;61.83
41306;BME280;27051;50.376;19.152;2023-05-16T00:18:38;97592.34;;;13.24;61.95
41306;BME280;27051;50.376;19.152;2023-05-16T00:21:05;97592.39;;;13.23;62.00
41306;BME280;27051;50.376;19.152;2023-05-16T00:23:34;97596.83;;;13.19;61.90
41306;BME280;27051;50.376;19.152;2023-05-16T00:26:01;97596.48;;;13.17;61.96
41306;BME280;27051;50.376;19.152;2023-05-16T00:28:28;97595.80;;;13.16;61.94
41306;BME280;27051;50.376;19.152;2023-05-16T00:30:54;97594.98;;;13.15;62.10
41306;BME280;27051;50.376;19.152;2023-05-16T00:33:21;97595.39;;;13.16;62.09
41306;BME280;27051;50.376;19.152;2023-05-16T00:35:48;97594.35;;;13.12;62.06
41306;BME280;27051;50.376;19.152;2023-05-16T00:38:14;97602.02;;;13.10;62.05
41306;BME280;27051;50.376;19.152;2023-05-16T00:40:41;97598.63;;;13.08;62.11
41306;BME280;27051;50.376;19.152;2023-05-16T00:43:07;97600.39;;;13.09;62.06
41306;BME280;27051;50.376;19.152;2023-05-16T00:45:34;97600.81;;;13.05;61.94
41306;BME280;27051;50.376;19.152;2023-05-16T00:48:01;97596.95;;;12.99;62.09
41306;BME280;27051;50.376;19.152;2023-05-16T00:50:28;97598.71;;;12.97;62.14
41306;BME280;27051;50.376;19.152;2023-05-16T00:52:55;97598.80;;;12.98;62.26
41306;BME280;27051;50.376;19.152;2023-05-16T00:55:21;97598.03;;;12.99;62.16
41306;BME280;27051;50.376;19.152;2023-05-16T00:57:49;97597.61;;;12.95;62.16
41306;BME280;27051;50.376;19.152;2023-05-16T01:00:15;97594.41;;;12.92;62.06
41306;BME280;27051;50.376;19.152;2023-05-16T01:02:42;97600.54;;;12.89;62.24
41306;BME280;27051;50.376;19.152;2023-05-16T01:05:09;97600.45;;;12.88;62.23
41306;BME280;27051;50.376;19.152;2023-05-16T01:07:36;97595.41;;;12.85;62.11
41306;BME280;27051;50.376;19.152;2023-05-16T01:10:03;97595.34;;;12.85;62.27
41306;BME280;27051;50.376;19.152;2023-05-16T01:12:47;97592.61;;;12.90;62.23
41306;BME280;27051;50.376;19.152;2023-05-16T01:15:27;97593.59;;;12.76;61.84
41306;BME280;27051;50.376;19.152;2023-05-16T01:28:35;97601.59;;;12.52;62.23
41306;BME280;27051;50.376;19.152;2023-05-16T01:31:03;97601.59;;;12.51;62.34
41306;BME280;27051;50.376;19.152;2023-05-16T01:33:29;97597.54;;;12.50;62.34
41306;BME280;27051;50.376;19.152;2023-05-16T01:36:11;97594.46;;;12.49;62.35
41306;BME280;27051;50.376;19.152;2023-05-16T01:38:45;97589.80;;;12.47;62.27
41306;BME280;27051;50.376;19.152;2023-05-16T01:41:20;97599.27;;;12.47;62.30
41306;BME280;27051;50.376;19.152;2023-05-16T01:43:52;97595.61;;;12.49;62.58
41306;BME280;27051;50.376;19.152;2023-05-16T01:46:23;97597.36;;;12.58;62.55
41306;BME280;27051;50.376;19.152;2023-05-16T01:51:40;97600.65;;;12.62;62.46
41306;BME280;27051;50.376;19.152;2023-05-16T01:54:11;97599.32;;;12.55;62.57
41306;BME280;27051;50.376;19.152;2023-05-16T01:56:40;97597.88;;;12.52;62.44
41306;BME280;27051;50.376;19.152;2023-05-16T01:59:09;97601.21;;;12.48;62.25
41306;BME280;27051;50.376;19.152;2023-05-16T02:01:37;97599.08;;;12.38;62.13
41306;BME280;27051;50.376;19.152;2023-05-16T02:04:03;97599.95;;;12.30;62.37
41306;BME280;27051;50.376;19.152;2023-05-16T02:06:30;97600.64;;;12.29;62.29
41306;BME280;27051;50.376;19.152;2023-05-16T02:08:57;97602.40;;;12.24;62.30
41306;BME280;27051;50.376;19.152;2023-05-16T02:11:23;97604.13;;;12.21;62.35
41306;BME280;27051;50.376;19.152;2023-05-16T02:13:50;97606.45;;;12.17;62.31
41306;BME280;27051;50.376;19.152;2023-05-16T02:16:16;97603.99;;;12.13;62.45
41306;BME280;27051;50.376;19.152;2023-05-16T02:18:43;97605.48;;;12.14;62.63
41306;BME280;27051;50.376;19.152;2023-05-16T02:21:10;97605.40;;;12.14;62.43
41306;BME280;27051;50.376;19.152;2023-05-16T02:23:36;97606.95;;;12.10;62.60
41306;BME280;27051;50.376;19.152;2023-05-16T02:26:03;97611.03;;;12.15;62.46
41306;BME280;27051;50.376;19.152;2023-05-16T02:28:30;97612.65;;;12.06;62.35
41306;BME280;27051;50.376;19.152;2023-05-16T02:30:57;97612.78;;;12.00;62.37
41306;BME280;27051;50.376;19.152;2023-05-16T02:33:25;97609.94;;;11.95;62.37
41306;BME280;27051;50.376;19.152;2023-05-16T02:35:52;97612.48;;;11.96;62.75
41306;BME280;27051;50.376;19.152;2023-05-16T02:38:20;97612.23;;;11.99;62.56
41306;BME280;27051;50.376;19.152;2023-05-16T02:40:47;97609.17;;;11.95;62.71
41306;BME280;27051;50.376;19.152;2023-05-16T02:43:14;97609.42;;;11.97;62.50
41306;BME280;27051;50.376;19.152;2023-05-16T02:45:41;97613.83;;;11.97;62.86
41306;BME280;27051;50.376;19.152;2023-05-16T02:48:07;97616.95;;;11.95;62.72
41306;BME280;27051;50.376;19.152;2023-05-16T02:50:34;97622.66;;;11.97;63.11
41306;BME280;27051;50.376;19.152;2023-05-16T02:53:01;97619.40;;;12.04;63.24
41306;BME280;27051;50.376;19.152;2023-05-16T02:55:28;97620.36;;;12.06;63.07
41306;BME280;27051;50.376;19.152;2023-05-16T02:57:54;97620.79;;;12.04;62.98
41306;BME280;27051;50.376;19.152;2023-05-16T03:00:21;97623.48;;;12.00;62.79
41306;BME280;27051;50.376;19.152;2023-05-16T03:02:48;97622.83;;;12.02;63.19
41306;BME280;27051;50.376;19.152;2023-05-16T03:05:14;97620.59;;;12.06;63.24
41306;BME280;27051;50.376;19.152;2023-05-16T03:07:41;97619.76;;;12.11;63.27
41306;BME280;27051;50.376;19.152;2023-05-16T03:10:08;97619.73;;;12.10;63.11
41306;BME280;27051;50.376;19.152;2023-05-16T03:12:34;97618.04;;;12.10;63.11
41306;BME280;27051;50.376;19.152;2023-05-16T03:15:01;97619.44;;;12.11;63.33
41306;BME280;27051;50.376;19.152;2023-05-16T03:17:28;97623.89;;;12.15;63.39
41306;BME280;27051;50.376;19.152;2023-05-16T03:19:54;97628.96;;;12.15;63.22
41306;BME280;27051;50.376;19.152;2023-05-16T03:22:21;97624.64;;;12.13;63.22
41306;BME280;27051;50.376;19.152;2023-05-16T03:24:48;97620.63;;;12.13;63.35
41306;BME280;27051;50.376;19.152;2023-05-16T03:27:14;97622.05;;;12.16;63.30
41306;BME280;27051;50.376;19.152;2023-05-16T03:29:41;97625.42;;;12.20;63.30
41306;BME280;27051;50.376;19.152;2023-05-16T03:32:10;97629.59;;;12.19;63.25
41306;BME280;27051;50.376;19.152;2023-05-16T03:34:37;97636.73;;;12.19;63.32
41306;BME280;27051;50.376;19.152;2023-05-16T03:37:03;97639.59;;;12.20;63.37
41306;BME280;27051;50.376;19.152;2023-05-16T03:39:30;97641.32;;;12.22;63.52
41306;BME280;27051;50.376;19.152;2023-05-16T03:41:56;97644.09;;;12.26;63.44
41306;BME280;27051;50.376;19.152;2023-05-16T03:44:23;97647.66;;;12.29;63.37
41306;BME280;27051;50.376;19.152;2023-05-16T03:46:50;97654.77;;;12.30;63.46
41306;BME280;27051;50.376;19.152;2023-05-16T03:49:16;97658.14;;;12.33;63.39
41306;BME280;27051;50.376;19.152;2023-05-16T03:51:43;97655.24;;;12.35;63.43
41306;BME280;27051;50.376;19.152;2023-05-16T03:54:10;97655.61;;;12.40;63.44
41306;BME280;27051;50.376;19.152;2023-05-16T03:56:36;97650.64;;;12.42;63.38
41306;BME280;27051;50.376;19.152;2023-05-16T03:59:03;97650.36;;;12.44;63.46
41306;BME280;27051;50.376;19.152;2023-05-16T04:01:29;97653.77;;;12.50;63.44
41306;BME280;27051;50.376;19.152;2023-05-16T04:03:56;97655.75;;;12.54;63.50
41306;BME280;27051;50.376;19.152;2023-05-16T04:06:23;97656.44;;;12.59;63.51
41306;BME280;27051;50.376;19.152;2023-05-16T04:08:49;97657.71;;;12.61;63.34
41306;BME280;27051;50.376;19.152;2023-05-16T04:11:16;97658.21;;;12.64;63.39
41306;BME280;27051;50.376;19.152;2023-05-16T04:13:43;97658.94;;;12.66;63.39
41306;BME280;27051;50.376;19.152;2023-05-16T04:16:09;97659.33;;;12.72;63.48
41306;BME280;27051;50.376;19.152;2023-05-16T04:18:36;97661.77;;;12.80;63.40
41306;BME280;27051;50.376;19.152;2023-05-16T04:21:03;97659.84;;;12.86;63.23
41306;BME280;27051;50.376;19.152;2023-05-16T04:23:30;97661.91;;;12.91;63.42
41306;BME280;27051;50.376;19.152;2023-05-16T04:25:56;97661.88;;;13.00;63.37
41306;BME280;27051;50.376;19.152;2023-05-16T04:28:23;97665.67;;;13.08;63.33
41306;BME280;27051;50.376;19.152;2023-05-16T04:30:50;97661.61;;;13.15;63.22
41306;BME280;27051;50.376;19.152;2023-05-16T04:33:17;97662.70;;;13.22;63.25
41306;BME280;27051;50.376;19.152;2023-05-16T04:35:43;97664.96;;;13.29;63.21
41306;BME280;27051;50.376;19.152;2023-05-16T04:38:10;97674.01;;;13.37;63.25
41306;BME280;27051;50.376;19.152;2023-05-16T04:40:36;97682.36;;;13.45;63.15
41306;BME280;27051;50.376;19.152;2023-05-16T04:43:03;97686.48;;;13.48;62.95
41306;BME280;27051;50.376;19.152;2023-05-16T04:45:30;97688.12;;;13.49;62.90
41306;BME280;27051;50.376;19.152;2023-05-16T04:47:56;97687.18;;;13.49;62.82
41306;BME280;27051;50.376;19.152;2023-05-16T04:50:23;97687.78;;;13.53;62.92
41306;BME280;27051;50.376;19.152;2023-05-16T04:52:49;97685.73;;;13.56;62.94
41306;BME280;27051;50.376;19.152;2023-05-16T04:55:16;97689.00;;;13.59;63.05
41306;BME280;27051;50.376;19.152;2023-05-16T04:57:43;97697.28;;;13.61;62.83
41306;BME280;27051;50.376;19.152;2023-05-16T05:00:10;97699.92;;;13.70;63.04
41306;BME280;27051;50.376;19.152;2023-05-16T05:02:37;97704.98;;;13.80;63.05
41306;BME280;27051;50.376;19.152;2023-05-16T05:05:05;97704.36;;;13.87;62.99
41306;BME280;27051;50.376;19.152;2023-05-16T05:07:32;97706.36;;;13.95;62.91
41306;BME280;27051;50.376;19.152;2023-05-16T05:09:59;97708.69;;;14.02;62.87
41306;BME280;27051;50.376;19.152;2023-05-16T05:12:25;97710.06;;;14.09;62.84
41306;BME280;27051;50.376;19.152;2023-05-16T05:14:52;97709.64;;;14.20;62.81
41306;BME280;27051;50.376;19.152;2023-05-16T05:17:19;97710.58;;;14.30;62.70
41306;BME280;27051;50.376;19.152;2023-05-16T05:19:46;97710.64;;;14.38;62.61
41306;BME280;27051;50.376;19.152;2023-05-16T05:22:13;97713.80;;;14.46;62.41
41306;BME280;27051;50.376;19.152;2023-05-16T05:24:40;97715.49;;;14.54;62.61
41306;BME280;27051;50.376;19.152;2023-05-16T05:27:07;97720.02;;;14.66;62.37
41306;BME280;27051;50.376;19.152;2023-05-16T05:29:33;97718.75;;;14.72;62.15
41306;BME280;27051;50.376;19.152;2023-05-16T05:32:00;97714.23;;;14.80;62.29
41306;BME280;27051;50.376;19.152;2023-05-16T05:34:27;97717.71;;;14.91;62.11
41306;BME280;27051;50.376;19.152;2023-05-16T05:36:53;97718.88;;;15.02;62.02
41306;BME280;27051;50.376;19.152;2023-05-16T05:39:20;97722.89;;;15.13;62.16
41306;BME280;27051;50.376;19.152;2023-05-16T05:41:47;97725.23;;;15.19;61.86
41306;BME280;27051;50.376;19.152;2023-05-16T05:44:14;97723.42;;;15.28;61.64
41306;BME280;27051;50.376;19.152;2023-05-16T05:46:40;97716.68;;;15.40;61.50
41306;BME280;27051;50.376;19.152;2023-05-16T05:49:08;97717.02;;;15.46;61.19
41306;BME280;27051;50.376;19.152;2023-05-16T05:51:34;97717.27;;;15.53;61.36
41306;BME280;27051;50.376;19.152;2023-05-16T05:54:01;97715.59;;;15.58;61.15
41306;BME280;27051;50.376;19.152;2023-05-16T05:56:28;97724.94;;;15.68;61.11
41306;BME280;27051;50.376;19.152;2023-05-16T05:58:55;97723.38;;;15.82;61.16
41306;BME280;27051;50.376;19.152;2023-05-16T06:01:21;97721.48;;;15.93;61.06
41306;BME280;27051;50.376;19.152;2023-05-16T06:03:48;97720.95;;;16.04;60.60
41306;BME280;27051;50.376;19.152;2023-05-16T06:06:16;97721.66;;;16.10;60.82
41306;BME280;27051;50.376;19.152;2023-05-16T06:08:42;97722.13;;;16.16;60.92
41306;BME280;27051;50.376;19.152;2023-05-16T06:11:09;97717.20;;;16.24;60.79
41306;BME280;27051;50.376;19.152;2023-05-16T06:13:35;97716.13;;;16.38;60.52
41306;BME280;27051;50.376;19.152;2023-05-16T06:16:03;97722.56;;;16.47;60.30
41306;BME280;27051;50.376;19.152;2023-05-16T06:18:29;97722.56;;;16.54;60.28
41306;BME280;27051;50.376;19.152;2023-05-16T06:20:56;97729.46;;;16.62;60.16
41306;BME280;27051;50.376;19.152;2023-05-16T06:23:23;97728.63;;;16.74;59.89
41306;BME280;27051;50.376;19.152;2023-05-16T06:25:49;97730.19;;;16.85;59.36
41306;BME280;27051;50.376;19.152;2023-05-16T06:28:16;97728.94;;;16.91;59.45
41306;BME280;27051;50.376;19.152;2023-05-16T06:30:43;97730.33;;;16.98;59.27
41306;BME280;27051;50.376;19.152;2023-05-16T06:33:09;97734.56;;;17.10;59.18
41306;BME280;27051;50.376;19.152;2023-05-16T06:35:36;97730.04;;;17.22;58.96
41306;BME280;27051;50.376;19.152;2023-05-16T06:38:02;97730.25;;;17.35;59.27
41306;BME280;27051;50.376;19.152;2023-05-16T06:40:29;97725.25;;;17.44;59.14
41306;BME280;27051;50.376;19.152;2023-05-16T06:42:56;97724.23;;;17.43;58.86
41306;BME280;27051;50.376;19.152;2023-05-16T06:45:22;97715.90;;;17.52;58.79
41306;BME280;27051;50.376;19.152;2023-05-16T06:47:49;97720.05;;;17.65;58.61
41306;BME280;27051;50.376;19.152;2023-05-16T06:50:16;97727.23;;;17.78;58.55
41306;BME280;27051;50.376;19.152;2023-05-16T06:52:42;97731.41;;;17.84;58.04
41306;BME280;27051;50.376;19.152;2023-05-16T06:55:09;97726.02;;;17.88;58.20
41306;BME280;27051;50.376;19.152;2023-05-16T06:57:36;97732.71;;;17.99;58.06
41306;BME280;27051;50.376;19.152;2023-05-16T07:00:03;97733.67;;;18.08;58.04
41306;BME280;27051;50.376;19.152;2023-05-16T07:02:30;97730.85;;;18.18;57.77
41306;BME280;27051;50.376;19.152;2023-05-16T07:04:56;97730.46;;;18.28;57.77
41306;BME280;27051;50.376;19.152;2023-05-16T07:07:23;97729.61;;;18.38;57.64
41306;BME280;27051;50.376;19.152;2023-05-16T07:09:50;97729.77;;;18.50;57.48
41306;BME280;27051;50.376;19.152;2023-05-16T07:12:16;97732.52;;;18.57;57.12
41306;BME280;27051;50.376;19.152;2023-05-16T07:14:43;97734.38;;;18.66;57.27
41306;BME280;27051;50.376;19.152;2023-05-16T07:17:09;97735.77;;;18.80;56.96
41306;BME280;27051;50.376;19.152;2023-05-16T07:19:36;97733.61;;;18.96;57.08
41306;BME280;27051;50.376;19.152;2023-05-16T07:22:03;97732.95;;;19.15;56.58
41306;BME280;27051;50.376;19.152;2023-05-16T07:24:29;97733.70;;;19.27;56.29
41306;BME280;27051;50.376;19.152;2023-05-16T07:26:56;97738.17;;;19.38;56.54
41306;BME280;27051;50.376;19.152;2023-05-16T07:29:23;97743.71;;;19.51;56.14
41306;BME280;27051;50.376;19.152;2023-05-16T07:31:50;97746.61;;;19.62;55.91
41306;BME280;27051;50.376;19.152;2023-05-16T07:34:17;97745.07;;;19.70;55.46
41306;BME280;27051;50.376;19.152;2023-05-16T07:36:43;97745.95;;;19.81;54.94
41306;BME280;27051;50.376;19.152;2023-05-16T07:39:10;97753.65;;;19.94;55.06
41306;BME280;27051;50.376;19.152;2023-05-16T07:41:37;97754.30;;;20.04;54.98
41306;BME280;27051;50.376;19.152;2023-05-16T07:44:03;97760.52;;;20.16;54.72
41306;BME280;27051;50.376;19.152;2023-05-16T07:46:30;97762.66;;;20.26;54.61
41306;BME280;27051;50.376;19.152;2023-05-16T07:48:57;97759.02;;;20.35;54.45
41306;BME280;27051;50.376;19.152;2023-05-16T07:51:23;97761.27;;;20.42;54.13
41306;BME280;27051;50.376;19.152;2023-05-16T07:53:50;97762.95;;;20.49;53.94
41306;BME280;27051;50.376;19.152;2023-05-16T07:56:16;97771.62;;;20.55;53.73
41306;BME280;27051;50.376;19.152;2023-05-16T07:58:43;97776.82;;;20.57;53.46
41306;BME280;27051;50.376;19.152;2023-05-16T08:01:10;97785.27;;;20.65;53.29
41306;BME280;27051;50.376;19.152;2023-05-16T08:03:36;97787.20;;;20.72;53.19
41306;BME280;27051;50.376;19.152;2023-05-16T08:06:03;97799.31;;;20.71;52.41
41306;BME280;27051;50.376;19.152;2023-05-16T08:08:30;97806.70;;;20.72;51.92
41306;BME280;27051;50.376;19.152;2023-05-16T08:10:56;97810.67;;;20.74;51.83
41306;BME280;27051;50.376;19.152;2023-05-16T08:13:23;97813.30;;;20.75;51.91
41306;BME280;27051;50.376;19.152;2023-05-16T08:15:50;97812.98;;;20.80;51.93
41306;BME280;27051;50.376;19.152;2023-05-16T08:18:16;97813.34;;;20.77;51.24
41306;BME280;27051;50.376;19.152;2023-05-16T08:20:43;97812.20;;;20.80;51.20
41306;BME280;27051;50.376;19.152;2023-05-16T08:23:10;97811.07;;;20.97;51.28
41306;BME280;27051;50.376;19.152;2023-05-16T08:25:36;97811.98;;;21.17;51.23
41306;BME280;27051;50.376;19.152;2023-05-16T08:28:03;97814.64;;;21.41;51.24
41306;BME280;27051;50.376;19.152;2023-05-16T08:30:30;97820.42;;;21.59;49.98
41306;BME280;27051;50.376;19.152;2023-05-16T08:32:56;97825.89;;;21.67;49.79
41306;BME280;27051;50.376;19.152;2023-05-16T08:35:23;97826.15;;;21.66;49.78
41306;BME280;27051;50.376;19.152;2023-05-16T08:37:50;97825.67;;;21.74;50.28
41306;BME280;27051;50.376;19.152;2023-05-16T08:40:17;97817.57;;;21.90;49.47
41306;BME280;27051;50.376;19.152;2023-05-16T08:42:43;97814.50;;;22.06;49.42
41306;BME280;27051;50.376;19.152;2023-05-16T08:45:10;97815.72;;;22.20;48.91
41306;BME280;27051;50.376;19.152;2023-05-16T08:47:38;97823.08;;;22.35;48.69
41306;BME280;27051;50.376;19.152;2023-05-16T08:50:08;97822.20;;;22.39;48.56
41306;BME280;27051;50.376;19.152;2023-05-16T08:52:37;97821.11;;;22.60;48.09
41306;BME280;27051;50.376;19.152;2023-05-16T08:55:05;97815.61;;;22.95;47.52
41306;BME280;27051;50.376;19.152;2023-05-16T08:57:33;97806.14;;;23.18;46.96
41306;BME280;27051;50.376;19.152;2023-05-16T09:00:00;97801.77;;;23.20;46.49
41306;BME280;27051;50.376;19.152;2023-05-16T09:02:27;97791.77;;;23.16;46.28
41306;BME280;27051;50.376;19.152;2023-05-16T09:04:55;97797.09;;;23.10;45.56
41306;BME280;27051;50.376;19.152;2023-05-16T09:07:22;97801.04;;;23.16;46.30
41306;BME280;27051;50.376;19.152;2023-05-16T09:09:48;97800.07;;;23.31;45.38
41306;BME280;27051;50.376;19.152;2023-05-16T09:12:15;97804.39;;;23.40;45.37
41306;BME280;27051;50.376;19.152;2023-05-16T09:14:42;97804.63;;;23.58;46.20
41306;BME280;27051;50.376;19.152;2023-05-16T09:17:08;97804.32;;;23.82;45.96
41306;BME280;27051;50.376;19.152;2023-05-16T09:19:39;97803.38;;;24.12;44.72
41306;BME280;27051;50.376;19.152;2023-05-16T09:22:11;97805.65;;;24.31;45.08
41306;BME280;27051;50.376;19.152;2023-05-16T09:24:47;97806.08;;;24.75;45.03
41306;BME280;27051;50.376;19.152;2023-05-16T09:27:14;97803.42;;;25.11;43.98
41306;BME280;27051;50.376;19.152;2023-05-16T09:29:42;97806.16;;;25.18;43.71
41306;BME280;27051;50.376;19.152;2023-05-16T09:32:12;97797.20;;;25.51;43.52
41306;BME280;27051;50.376;19.152;2023-05-16T09:34:47;97800.48;;;25.94;42.91
41306;BME280;27051;50.376;19.152;2023-05-16T09:37:14;97798.16;;;26.38;43.01
41306;BME280;27051;50.376;19.152;2023-05-16T09:39:49;97795.23;;;26.57;41.89
41306;BME280;27051;50.376;19.152;2023-05-16T09:42:17;97799.21;;;26.74;42.09
41306;BME280;27051;50.376;19.152;2023-05-16T09:44:49;97802.60;;;27.07;41.40
41306;BME280;27051;50.376;19.152;2023-05-16T09:47:20;97809.49;;;27.32;40.83
41306;BME280;27051;50.376;19.152;2023-05-16T09:49:51;97812.08;;;27.53;40.10
41306;BME280;27051;50.376;19.152;2023-05-16T09:52:18;97812.02;;;27.84;40.23
41306;BME280;27051;50.376;19.152;2023-05-16T09:54:45;97804.04;;;28.26;39.67
41306;BME280;27051;50.376;19.152;2023-05-16T09:57:17;97802.38;;;28.72;39.50
41306;BME280;27051;50.376;19.152;2023-05-16T09:59:44;97801.47;;;29.11;38.84
41306;BME280;27051;50.376;19.152;2023-05-16T10:02:11;97803.67;;;29.63;38.48
41306;BME280;27051;50.376;19.152;2023-05-16T10:04:38;97795.49;;;30.03;37.01
41306;BME280;27051;50.376;19.152;2023-05-16T10:07:05;97799.83;;;30.36;36.79
41306;BME280;27051;50.376;19.152;2023-05-16T10:09:32;97798.66;;;30.44;36.66
41306;BME280;27051;50.376;19.152;2023-05-16T10:12:00;97793.36;;;30.38;35.83
41306;BME280;27051;50.376;19.152;2023-05-16T10:14:37;97790.46;;;30.26;36.39
41306;BME280;27051;50.376;19.152;2023-05-16T10:17:06;97789.31;;;30.16;35.57
41306;BME280;27051;50.376;19.152;2023-05-16T10:19:38;97786.73;;;30.05;35.88
41306;BME280;27051;50.376;19.152;2023-05-16T10:22:05;97784.08;;;29.84;35.29
41306;BME280;27051;50.376;19.152;2023-05-16T10:24:43;97785.73;;;29.55;35.23
41306;BME280;27051;50.376;19.152;2023-05-16T10:27:14;97788.32;;;29.19;34.26
41306;BME280;27051;50.376;19.152;2023-05-16T10:29:41;97794.15;;;28.91;35.08
41306;BME280;27051;50.376;19.152;2023-05-16T10:32:09;97790.30;;;28.72;35.16
41306;BME280;27051;50.376;19.152;2023-05-16T10:34:36;97786.16;;;28.61;34.89
41306;BME280;27051;50.376;19.152;2023-05-16T10:37:04;97783.29;;;28.57;34.79
41306;BME280;27051;50.376;19.152;2023-05-16T10:39:31;97778.88;;;28.50;34.66
41306;BME280;27051;50.376;19.152;2023-05-16T10:41:58;97777.94;;;28.58;34.22
41306;BME280;27051;50.376;19.152;2023-05-16T10:44:25;97770.66;;;28.70;34.31
41306;BME280;27051;50.376;19.152;2023-05-16T10:46:52;97775.14;;;28.88;34.48
41306;BME280;27051;50.376;19.152;2023-05-16T10:49:23;97780.24;;;29.08;34.31
41306;BME280;27051;50.376;19.152;2023-05-16T10:52:08;97781.23;;;29.42;34.30
41306;BME280;27051;50.376;19.152;2023-05-16T10:54:41;97782.77;;;29.78;33.92
41306;BME280;27051;50.376;19.152;2023-05-16T10:57:17;97785.35;;;30.20;33.38
41306;BME280;27051;50.376;19.152;2023-05-16T10:59:46;97780.31;;;30.42;32.59
41306;BME280;27051;50.376;19.152;2023-05-16T11:02:24;97778.84;;;30.47;32.59
41306;BME280;27051;50.376;19.152;2023-05-16T11:04:54;97772.55;;;30.55;32.47
41306;BME280;27051;50.376;19.152;2023-05-16T11:07:22;97772.74;;;30.69;32.03
41306;BME280;27051;50.376;19.152;2023-05-16T11:10:05;97772.70;;;30.69;31.84
41306;BME280;27051;50.376;19.152;2023-05-16T11:12:50;97769.08;;;30.73;31.46
41306;BME280;27051;50.376;19.152;2023-05-16T11:15:23;97767.88;;;30.81;31.06
41306;BME280;27051;50.376;19.152;2023-05-16T11:18:23;97769.03;;;30.83;31.23
41306;BME280;27051;50.376;19.152;2023-05-16T11:20:50;97767.40;;;31.01;30.94
41306;BME280;27051;50.376;19.152;2023-05-16T11:23:18;97764.80;;;31.07;30.60
41306;BME280;27051;50.376;19.152;2023-05-16T11:25:48;97759.92;;;31.05;30.81
41306;BME280;27051;50.376;19.152;2023-05-16T11:28:17;97760.11;;;30.88;31.02
41306;BME280;27051;50.376;19.152;2023-05-16T11:30:52;97757.30;;;30.57;30.96
41306;BME280;27051;50.376;19.152;2023-05-16T11:33:19;97749.92;;;30.25;30.82
41306;BME280;27051;50.376;19.152;2023-05-16T11:36:18;97746.15;;;29.96;30.93
41306;BME280;27051;50.376;19.152;2023-05-16T11:38:45;97744.39;;;29.74;30.94
41306;BME280;27051;50.376;19.152;2023-05-16T11:41:11;97741.75;;;29.60;30.96
41306;BME280;27051;50.376;19.152;2023-05-16T11:43:43;97739.68;;;29.47;31.00
41306;BME280;27051;50.376;19.152;2023-05-16T11:46:14;97743.18;;;29.42;30.85
41306;BME280;27051;50.376;19.152;2023-05-16T11:48:41;97746.89;;;29.26;30.85
41306;BME280;27051;50.376;19.152;2023-05-16T11:51:08;97748.77;;;29.04;30.97
41306;BME280;27051;50.376;19.152;2023-05-16T11:53:36;97746.95;;;28.85;30.64
41306;BME280;27051;50.376;19.152;2023-05-16T11:56:02;97746.20;;;28.69;31.11
41306;BME280;27051;50.376;19.152;2023-05-16T11:58:29;97745.33;;;28.54;31.20
41306;BME280;27051;50.376;19.152;2023-05-16T12:00:56;97744.88;;;28.44;31.24
41306;BME280;27051;50.376;19.152;2023-05-16T12:03:23;97751.70;;;28.26;31.67
41306;BME280;27051;50.376;19.152;2023-05-16T12:05:53;97755.82;;;27.97;31.60
41306;BME280;27051;50.376;19.152;2023-05-16T12:08:20;97752.02;;;27.70;31.47
41306;BME280;27051;50.376;19.152;2023-05-16T12:10:48;97748.63;;;27.59;31.69
41306;BME280;27051;50.376;19.152;2023-05-16T12:13:16;97750.89;;;27.52;31.23
41306;BME280;27051;50.376;19.152;2023-05-16T12:15:44;97760.63;;;27.42;31.61
41306;BME280;27051;50.376;19.152;2023-05-16T12:18:11;97758.94;;;27.41;31.90
41306;BME280;27051;50.376;19.152;2023-05-16T12:20:38;97752.77;;;27.33;32.60
41306;BME280;27051;50.376;19.152;2023-05-16T12:23:10;97752.84;;;27.24;32.49
41306;BME280;27051;50.376;19.152;2023-05-16T12:25:36;97750.38;;;27.05;32.52
41306;BME280;27051;50.376;19.152;2023-05-16T12:28:03;97750.52;;;26.94;32.87
41306;BME280;27051;50.376;19.152;2023-05-16T12:30:31;97750.35;;;26.84;33.26
41306;BME280;27051;50.376;19.152;2023-05-16T12:35:25;97748.30;;;26.59;33.28
41306;BME280;27051;50.376;19.152;2023-05-16T12:37:55;97745.95;;;26.42;33.27
41306;BME280;27051;50.376;19.152;2023-05-16T12:40:21;97742.60;;;26.36;33.32
41306;BME280;27051;50.376;19.152;2023-05-16T12:42:49;97738.43;;;26.28;33.64
41306;BME280;27051;50.376;19.152;2023-05-16T12:45:16;97739.79;;;26.15;33.65
41306;BME280;27051;50.376;19.152;2023-05-16T12:47:44;97742.66;;;26.01;33.86
41306;BME280;27051;50.376;19.152;2023-05-16T12:50:12;97738.36;;;25.85;34.31
41306;BME280;27051;50.376;19.152;2023-05-16T12:52:49;97736.83;;;25.80;34.63
41306;BME280;27051;50.376;19.152;2023-05-16T12:55:17;97731.13;;;25.81;34.39
41306;BME280;27051;50.376;19.152;2023-05-16T12:57:45;97729.88;;;25.83;34.45
41306;BME280;27051;50.376;19.152;2023-05-16T13:00:14;97727.55;;;25.80;34.16
41306;BME280;27051;50.376;19.152;2023-05-16T13:02:41;97723.59;;;25.69;34.38
41306;BME280;27051;50.376;19.152;2023-05-16T13:05:08;97722.64;;;25.50;34.47
41306;BME280;27051;50.376;19.152;2023-05-16T13:07:35;97723.02;;;25.28;34.86
41306;BME280;27051;50.376;19.152;2023-05-16T13:10:02;97722.60;;;25.15;35.16